Friday, October 31, 2014, 2:27 PM EDT
Back to Local

KPTW, Pottstown Limerick Airport

Location: Royersford, PA, United States Lat: 40.233
Local Time: 2:27 PM EDT (18:27 GMT) Lon: -75.55
Time Zone: US/Eastern Elev: 291 ft

Show me the last for .
Show Decoded

2014-10-31 13:54 METAR KPTW 311754Z AUTO 02007KT 10SM BKN055 11/01 A2993 RMK AO2 SLP134 T01110006
                 10117 21011 56027 =
2014-10-31 12:54 METAR KPTW 311654Z AUTO VRB03KT 10SM CLR 11/02 A2995 RMK AO2 SLP141 T01060022 =
2014-10-31 11:54 METAR KPTW 311554Z AUTO 03004KT 10SM CLR 09/02 A2999 RMK AO2 SLP154 T00940022 =
2014-10-31 10:54 METAR KPTW 311454Z AUTO 05006KT 10SM CLR 09/02 A3001 RMK AO2 SLP162 T00890022
                 58008 =
2014-10-31 09:54 METAR KPTW 311354Z AUTO 04004KT 10SM CLR 06/01 A3002 RMK AO2 SLP166 T00610011 =
2014-10-31 08:54 METAR KPTW 311254Z AUTO 00000KT 10SM CLR 01/M01 A3004 RMK AO2 SLP170 T00111006 =
2014-10-31 07:54 METAR KPTW 311154Z AUTO 00000KT 10SM CLR M01/M02 A3004 RMK AO2 SLP171 I1001
                 I6001 T10111022 10017 21011 50002 =
2014-10-31 06:54 METAR KPTW 311054Z AUTO 00000KT 10SM CLR M01/M02 A3004 RMK AO2 SLP170 T10111017
                 =
2014-10-31 05:54 METAR KPTW 310954Z AUTO 00000KT 10SM CLR M01/M02 A3004 RMK AO2 SLP171 T10061017
                 =
2014-10-31 04:54 METAR KPTW 310854Z AUTO 00000KT 10SM CLR 00/M02 A3003 RMK AO2 SLP168 T00001017
                 56004 =
2014-10-31 02:54 METAR KPTW 310654Z AUTO 00000KT 10SM CLR 01/M01 A3004 RMK AO2 SLP171 T00061006 =
2014-10-31 01:54 METAR KPTW 310554Z AUTO 00000KT 10SM CLR 01/M01 A3004 RMK AO2 SLP172 T00111006
                 10078 20011 57003 =
2014-10-31 00:54 METAR KPTW 310454Z AUTO 00000KT 10SM CLR 02/00 A3005 RMK AO2 SLP173 T00170000
                 401440017 =
2014-10-30 23:54 METAR KPTW 310354Z AUTO 00000KT 10SM CLR 02/01 A3005 RMK AO2 SLP174 T00220006 =
2014-10-30 22:54 METAR KPTW 310254Z AUTO 00000KT 10SM CLR 03/01 A3005 RMK AO2 SLP176 T00280006
                 51003 =
2014-10-30 21:54 METAR KPTW 310154Z AUTO 02003KT 10SM CLR 06/01 A3005 RMK AO2 SLP175 T00560011 =
2014-10-30 20:54 METAR KPTW 310054Z AUTO 03005KT 10SM CLR 06/01 A3005 RMK AO2 SLP174 T00610011 =
2014-10-30 19:54 METAR KPTW 302354Z AUTO 06004KT 10SM CLR 07/01 A3004 RMK AO2 SLP172 T00720011
                 10133 20072 51010 =
2014-10-30 18:54 METAR KPTW 302254Z AUTO 33003KT 10SM CLR 09/01 A3004 RMK AO2 SLP170 T00940011 =
2014-10-30 17:54 METAR KPTW 302154Z AUTO 31003KT 10SM BKN060 11/02 A3003 RMK AO2 SLP166 T01110022
                 =
2014-10-30 16:54 METAR KPTW 302054Z AUTO 32005KT 10SM OVC060 12/01 A3001 RMK AO2 SLP161 T01220011
                 55000 =
2014-10-30 15:54 METAR KPTW 301954Z AUTO 32007KT 10SM OVC060 13/02 A3001 RMK AO2 SLP160 T01280017
                 =
2014-10-30 14:54 METAR KPTW 301854Z AUTO 35005KT 10SM SCT048 OVC060 13/02 A3001 RMK AO2 SLP160
                 T01280022 =

Support USWX by starting your Amazon purchase here.